sensor_id;sensor_type;location;lat;lon;timestamp;P1;durP1;ratioP1;P2;durP2;ratioP2
23768;SDS011;12064;50.890;5.424;2022-07-23T00:06:17;2.95;;;2.40;;
23768;SDS011;12064;50.890;5.424;2022-07-23T00:15:08;2.67;;;2.30;;
23768;SDS011;12064;50.890;5.424;2022-07-23T00:23:59;4.53;;;2.58;;
23768;SDS011;12064;50.890;5.424;2022-07-23T00:32:54;2.90;;;2.60;;
23768;SDS011;12064;50.890;5.424;2022-07-23T00:51:06;2.20;;;2.00;;
23768;SDS011;12064;50.890;5.424;2022-07-23T00:59:57;3.83;;;2.47;;
23768;SDS011;12064;50.890;5.424;2022-07-23T01:08:50;2.38;;;2.17;;
23768;SDS011;12064;50.890;5.424;2022-07-23T01:17:54;3.97;;;2.40;;
23768;SDS011;12064;50.890;5.424;2022-07-23T01:36:09;2.53;;;2.30;;
23768;SDS011;12064;50.890;5.424;2022-07-23T01:45:04;2.30;;;2.20;;
23768;SDS011;12064;50.890;5.424;2022-07-23T02:12:24;3.10;;;2.40;;
23768;SDS011;12064;50.890;5.424;2022-07-23T02:21:14;2.78;;;2.40;;
23768;SDS011;12064;50.890;5.424;2022-07-23T02:30:08;2.60;;;2.40;;
23768;SDS011;12064;50.890;5.424;2022-07-23T02:38:59;2.13;;;2.03;;
23768;SDS011;12064;50.890;5.424;2022-07-23T02:47:49;3.30;;;2.53;;
23768;SDS011;12064;50.890;5.424;2022-07-23T02:56:42;3.92;;;2.70;;
23768;SDS011;12064;50.890;5.424;2022-07-23T03:05:34;2.50;;;2.30;;
23768;SDS011;12064;50.890;5.424;2022-07-23T03:14:27;2.70;;;2.50;;
23768;SDS011;12064;50.890;5.424;2022-07-23T03:23:21;3.15;;;2.20;;
23768;SDS011;12064;50.890;5.424;2022-07-23T03:41:36;2.53;;;2.33;;
23768;SDS011;12064;50.890;5.424;2022-07-23T03:50:26;3.07;;;2.20;;
23768;SDS011;12064;50.890;5.424;2022-07-23T03:59:17;2.30;;;2.10;;
23768;SDS011;12064;50.890;5.424;2022-07-23T04:08:10;2.65;;;2.22;;
23768;SDS011;12064;50.890;5.424;2022-07-23T04:17:01;2.00;;;1.90;;
23768;SDS011;12064;50.890;5.424;2022-07-23T04:25:55;2.10;;;1.90;;
23768;SDS011;12064;50.890;5.424;2022-07-23T04:34:45;2.95;;;2.35;;
23768;SDS011;12064;50.890;5.424;2022-07-23T04:53:00;3.50;;;2.20;;
23768;SDS011;12064;50.890;5.424;2022-07-23T05:01:54;3.90;;;2.20;;
23768;SDS011;12064;50.890;5.424;2022-07-23T05:10:45;2.77;;;2.20;;
23768;SDS011;12064;50.890;5.424;2022-07-23T05:19:36;2.60;;;2.00;;
23768;SDS011;12064;50.890;5.424;2022-07-23T05:28:30;2.87;;;2.23;;
23768;SDS011;12064;50.890;5.424;2022-07-23T05:37:21;4.47;;;4.07;;
23768;SDS011;12064;50.890;5.424;2022-07-23T05:46:21;11.50;;;7.10;;
23768;SDS011;12064;50.890;5.424;2022-07-23T05:55:15;6.80;;;5.13;;
23768;SDS011;12064;50.890;5.424;2022-07-23T06:04:06;8.93;;;5.35;;
23768;SDS011;12064;50.890;5.424;2022-07-23T06:12:56;7.53;;;6.70;;
23768;SDS011;12064;50.890;5.424;2022-07-23T06:21:47;7.73;;;6.93;;
23768;SDS011;12064;50.890;5.424;2022-07-23T06:30:40;9.38;;;5.03;;
23768;SDS011;12064;50.890;5.424;2022-07-23T06:39:31;6.82;;;5.70;;
23768;SDS011;12064;50.890;5.424;2022-07-23T06:48:24;8.98;;;6.50;;
23768;SDS011;12064;50.890;5.424;2022-07-23T07:06:39;8.93;;;6.10;;
23768;SDS011;12064;50.890;5.424;2022-07-23T07:15:30;8.20;;;6.40;;
23768;SDS011;12064;50.890;5.424;2022-07-23T07:24:23;7.72;;;6.93;;
23768;SDS011;12064;50.890;5.424;2022-07-23T07:33:14;8.80;;;6.90;;
23768;SDS011;12064;50.890;5.424;2022-07-23T07:42:04;8.53;;;6.77;;
23768;SDS011;12064;50.890;5.424;2022-07-23T07:50:57;8.18;;;6.50;;
23768;SDS011;12064;50.890;5.424;2022-07-23T07:59:48;8.38;;;7.20;;
23768;SDS011;12064;50.890;5.424;2022-07-23T08:08:39;7.97;;;6.77;;
23768;SDS011;12064;50.890;5.424;2022-07-23T08:17:32;6.38;;;5.18;;
23768;SDS011;12064;50.890;5.424;2022-07-23T08:26:23;6.13;;;3.73;;
23768;SDS011;12064;50.890;5.424;2022-07-23T08:35:14;3.60;;;3.30;;
23768;SDS011;12064;50.890;5.424;2022-07-23T08:44:06;5.70;;;3.80;;
23768;SDS011;12064;50.890;5.424;2022-07-23T08:53:00;4.78;;;3.30;;
23768;SDS011;12064;50.890;5.424;2022-07-23T09:01:52;4.53;;;3.10;;
23768;SDS011;12064;50.890;5.424;2022-07-23T09:10:44;4.80;;;3.03;;
23768;SDS011;12064;50.890;5.424;2022-07-23T09:19:38;3.28;;;2.95;;
23768;SDS011;12064;50.890;5.424;2022-07-23T09:28:29;4.05;;;2.85;;
23768;SDS011;12064;50.890;5.424;2022-07-23T09:37:20;3.73;;;2.80;;
23768;SDS011;12064;50.890;5.424;2022-07-23T09:55:39;4.28;;;3.00;;
23768;SDS011;12064;50.890;5.424;2022-07-23T10:04:29;4.37;;;2.80;;
23768;SDS011;12064;50.890;5.424;2022-07-23T10:13:21;3.13;;;2.83;;
23768;SDS011;12064;50.890;5.424;2022-07-23T10:22:31;2.80;;;2.60;;
23768;SDS011;12064;50.890;5.424;2022-07-23T10:40:21;2.85;;;2.65;;
23768;SDS011;12064;50.890;5.424;2022-07-23T10:49:26;3.00;;;2.80;;
23768;SDS011;12064;50.890;5.424;2022-07-23T10:58:19;3.55;;;3.08;;
23768;SDS011;12064;50.890;5.424;2022-07-23T11:07:11;3.20;;;3.00;;
23768;SDS011;12064;50.890;5.424;2022-07-23T11:24:55;3.53;;;3.28;;
23768;SDS011;12064;50.890;5.424;2022-07-23T11:33:47;3.38;;;3.13;;
23768;SDS011;12064;50.890;5.424;2022-07-23T11:43:16;3.40;;;3.10;;
23768;SDS011;12064;50.890;5.424;2022-07-23T11:52:12;3.15;;;2.95;;
23768;SDS011;12064;50.890;5.424;2022-07-23T12:01:03;3.50;;;3.30;;
23768;SDS011;12064;50.890;5.424;2022-07-23T12:09:57;3.58;;;3.28;;
23768;SDS011;12064;50.890;5.424;2022-07-23T12:18:49;3.08;;;2.88;;
23768;SDS011;12064;50.890;5.424;2022-07-23T12:27:41;3.45;;;3.22;;
23768;SDS011;12064;50.890;5.424;2022-07-23T12:36:38;3.40;;;3.20;;
23768;SDS011;12064;50.890;5.424;2022-07-23T12:45:46;3.20;;;3.00;;
23768;SDS011;12064;50.890;5.424;2022-07-23T12:55:07;2.80;;;2.60;;
23768;SDS011;12064;50.890;5.424;2022-07-23T13:04:18;3.03;;;2.83;;
23768;SDS011;12064;50.890;5.424;2022-07-23T13:13:10;3.15;;;2.95;;
23768;SDS011;12064;50.890;5.424;2022-07-23T13:22:01;3.55;;;3.30;;
23768;SDS011;12064;50.890;5.424;2022-07-23T13:30:52;3.15;;;2.95;;
23768;SDS011;12064;50.890;5.424;2022-07-23T13:39:43;2.67;;;2.55;;
23768;SDS011;12064;50.890;5.424;2022-07-23T13:48:33;2.90;;;2.70;;
23768;SDS011;12064;50.890;5.424;2022-07-23T13:57:24;2.43;;;2.30;;
23768;SDS011;12064;50.890;5.424;2022-07-23T14:06:18;2.65;;;2.55;;
23768;SDS011;12064;50.890;5.424;2022-07-23T14:15:08;2.43;;;2.27;;
23768;SDS011;12064;50.890;5.424;2022-07-23T14:23:59;2.55;;;2.40;;
23768;SDS011;12064;50.890;5.424;2022-07-23T14:32:50;2.20;;;2.10;;
23768;SDS011;12064;50.890;5.424;2022-07-23T14:41:41;2.30;;;2.20;;
23768;SDS011;12064;50.890;5.424;2022-07-23T14:50:32;2.23;;;2.13;;
23768;SDS011;12064;50.890;5.424;2022-07-23T14:59:22;2.53;;;2.37;;
23768;SDS011;12064;50.890;5.424;2022-07-23T15:08:13;2.25;;;2.15;;
23768;SDS011;12064;50.890;5.424;2022-07-23T15:17:04;2.43;;;2.33;;
23768;SDS011;12064;50.890;5.424;2022-07-23T15:25:55;2.33;;;2.22;;
23768;SDS011;12064;50.890;5.424;2022-07-23T15:34:47;2.20;;;2.10;;
23768;SDS011;12064;50.890;5.424;2022-07-23T15:43:41;2.10;;;2.00;;
23768;SDS011;12064;50.890;5.424;2022-07-23T15:52:36;2.15;;;2.05;;
23768;SDS011;12064;50.890;5.424;2022-07-23T16:01:29;2.17;;;2.08;;
23768;SDS011;12064;50.890;5.424;2022-07-23T16:10:22;2.40;;;2.30;;
23768;SDS011;12064;50.890;5.424;2022-07-23T16:19:13;2.58;;;2.38;;
23768;SDS011;12064;50.890;5.424;2022-07-23T16:28:06;2.80;;;2.70;;
23768;SDS011;12064;50.890;5.424;2022-07-23T16:36:57;2.53;;;2.42;;
23768;SDS011;12064;50.890;5.424;2022-07-23T16:45:50;2.60;;;2.40;;
23768;SDS011;12064;50.890;5.424;2022-07-23T16:54:42;2.63;;;2.43;;
23768;SDS011;12064;50.890;5.424;2022-07-23T17:03:33;2.75;;;2.55;;
23768;SDS011;12064;50.890;5.424;2022-07-23T17:12:30;2.42;;;2.33;;
23768;SDS011;12064;50.890;5.424;2022-07-23T17:21:21;2.77;;;2.37;;
23768;SDS011;12064;50.890;5.424;2022-07-23T17:30:24;2.57;;;2.37;;
23768;SDS011;12064;50.890;5.424;2022-07-23T17:39:17;2.67;;;2.58;;
23768;SDS011;12064;50.890;5.424;2022-07-23T17:48:11;2.60;;;2.40;;
23768;SDS011;12064;50.890;5.424;2022-07-23T18:06:36;2.70;;;2.50;;
23768;SDS011;12064;50.890;5.424;2022-07-23T18:24:46;2.50;;;2.40;;
23768;SDS011;12064;50.890;5.424;2022-07-23T18:33:37;2.70;;;2.50;;
23768;SDS011;12064;50.890;5.424;2022-07-23T18:42:28;2.45;;;2.25;;
23768;SDS011;12064;50.890;5.424;2022-07-23T19:00:20;2.35;;;2.15;;
23768;SDS011;12064;50.890;5.424;2022-07-23T19:09:11;2.83;;;2.63;;
23768;SDS011;12064;50.890;5.424;2022-07-23T19:18:05;2.70;;;2.60;;
23768;SDS011;12064;50.890;5.424;2022-07-23T19:35:55;2.67;;;2.47;;
23768;SDS011;12064;50.890;5.424;2022-07-23T19:44:46;2.72;;;2.58;;
23768;SDS011;12064;50.890;5.424;2022-07-23T19:53:43;2.60;;;2.50;;
23768;SDS011;12064;50.890;5.424;2022-07-23T20:02:34;2.95;;;2.75;;
23768;SDS011;12064;50.890;5.424;2022-07-23T20:11:28;3.20;;;3.00;;
23768;SDS011;12064;50.890;5.424;2022-07-23T20:20:22;3.38;;;3.17;;
23768;SDS011;12064;50.890;5.424;2022-07-23T20:29:17;3.10;;;2.90;;
23768;SDS011;12064;50.890;5.424;2022-07-23T20:38:09;3.05;;;2.85;;
23768;SDS011;12064;50.890;5.424;2022-07-23T20:56:15;2.92;;;2.72;;
23768;SDS011;12064;50.890;5.424;2022-07-23T21:05:09;2.45;;;2.25;;
23768;SDS011;12064;50.890;5.424;2022-07-23T21:14:00;4.25;;;1.90;;
23768;SDS011;12064;50.890;5.424;2022-07-23T21:22:51;2.20;;;2.10;;
23768;SDS011;12064;50.890;5.424;2022-07-23T21:31:42;1.90;;;1.80;;
23768;SDS011;12064;50.890;5.424;2022-07-23T21:40:33;2.70;;;2.10;;
23768;SDS011;12064;50.890;5.424;2022-07-23T21:49:23;2.35;;;2.13;;
23768;SDS011;12064;50.890;5.424;2022-07-23T21:58:14;2.43;;;1.97;;
23768;SDS011;12064;50.890;5.424;2022-07-23T22:07:05;2.27;;;2.07;;
23768;SDS011;12064;50.890;5.424;2022-07-23T22:15:55;2.00;;;1.90;;
23768;SDS011;12064;50.890;5.424;2022-07-23T22:24:46;2.10;;;2.00;;
23768;SDS011;12064;50.890;5.424;2022-07-23T22:33:36;2.20;;;2.10;;
23768;SDS011;12064;50.890;5.424;2022-07-23T22:51:33;2.20;;;2.10;;
23768;SDS011;12064;50.890;5.424;2022-07-23T23:00:27;2.00;;;1.90;;
23768;SDS011;12064;50.890;5.424;2022-07-23T23:18:28;2.25;;;2.10;;
23768;SDS011;12064;50.890;5.424;2022-07-23T23:27:18;2.35;;;2.03;;
23768;SDS011;12064;50.890;5.424;2022-07-23T23:36:26;2.27;;;2.10;;
23768;SDS011;12064;50.890;5.424;2022-07-23T23:45:17;1.90;;;1.80;;
